sensor_id;sensor_type;location;lat;lon;timestamp;temperature;humidity
72288;SHT31;60221;45.696;16.076;2022-08-19T00:02:08;23.94;60.65
72288;SHT31;60221;45.696;16.076;2022-08-19T00:04:35;23.91;60.83
72288;SHT31;60221;45.696;16.076;2022-08-19T00:07:05;23.89;60.85
72288;SHT31;60221;45.696;16.076;2022-08-19T00:09:32;23.87;60.77
72288;SHT31;60221;45.696;16.076;2022-08-19T00:12:00;23.87;60.92
72288;SHT31;60221;45.696;16.076;2022-08-19T00:14:29;23.85;60.99
72288;SHT31;60221;45.696;16.076;2022-08-19T00:16:57;23.84;61.15
72288;SHT31;60221;45.696;16.076;2022-08-19T00:19:24;23.82;61.13
72288;SHT31;60221;45.696;16.076;2022-08-19T00:21:51;23.82;61.21
72288;SHT31;60221;45.696;16.076;2022-08-19T00:24:17;23.80;61.25
72288;SHT31;60221;45.696;16.076;2022-08-19T00:26:45;23.74;61.35
72288;SHT31;60221;45.696;16.076;2022-08-19T00:29:15;23.72;61.23
72288;SHT31;60221;45.696;16.076;2022-08-19T00:31:42;23.70;61.42
72288;SHT31;60221;45.696;16.076;2022-08-19T00:34:10;23.64;61.48
72288;SHT31;60221;45.696;16.076;2022-08-19T00:36:39;23.62;61.58
72288;SHT31;60221;45.696;16.076;2022-08-19T00:39:06;23.61;61.56
72288;SHT31;60221;45.696;16.076;2022-08-19T00:41:33;23.56;61.78
72288;SHT31;60221;45.696;16.076;2022-08-19T00:44:15;23.53;61.89
72288;SHT31;60221;45.696;16.076;2022-08-19T00:46:40;23.51;62.00
72288;SHT31;60221;45.696;16.076;2022-08-19T00:49:26;23.49;62.08
72288;SHT31;60221;45.696;16.076;2022-08-19T00:51:59;23.49;62.15
72288;SHT31;60221;45.696;16.076;2022-08-19T00:54:23;24.39;65.31
72288;SHT31;60221;45.696;16.076;2022-08-19T00:56:51;25.90;64.52
72288;SHT31;60221;45.696;16.076;2022-08-19T00:59:18;26.77;59.53
72288;SHT31;60221;45.696;16.076;2022-08-19T01:01:46;26.82;55.81
72288;SHT31;60221;45.696;16.076;2022-08-19T01:04:13;26.18;55.57
72288;SHT31;60221;45.696;16.076;2022-08-19T01:06:40;25.66;56.15
72288;SHT31;60221;45.696;16.076;2022-08-19T01:09:07;25.35;56.83
72288;SHT31;60221;45.696;16.076;2022-08-19T01:11:39;25.12;57.25
72288;SHT31;60221;45.696;16.076;2022-08-19T01:14:08;24.94;57.77
72288;SHT31;60221;45.696;16.076;2022-08-19T01:16:37;24.80;58.23
72288;SHT31;60221;45.696;16.076;2022-08-19T01:19:12;24.68;58.54
72288;SHT31;60221;45.696;16.076;2022-08-19T01:21:52;24.53;58.84
72288;SHT31;60221;45.696;16.076;2022-08-19T01:24:17;24.43;59.10
72288;SHT31;60221;45.696;16.076;2022-08-19T01:26:45;24.39;59.46
72288;SHT31;60221;45.696;16.076;2022-08-19T01:29:12;24.29;59.75
72288;SHT31;60221;45.696;16.076;2022-08-19T01:31:39;24.22;60.07
72288;SHT31;60221;45.696;16.076;2022-08-19T01:34:07;24.12;60.38
72288;SHT31;60221;45.696;16.076;2022-08-19T01:36:42;24.06;60.62
72288;SHT31;60221;45.696;16.076;2022-08-19T01:39:15;24.02;60.68
72288;SHT31;60221;45.696;16.076;2022-08-19T01:41:41;23.97;60.98
72288;SHT31;60221;45.696;16.076;2022-08-19T01:44:09;23.95;61.32
72288;SHT31;60221;45.696;16.076;2022-08-19T01:46:36;23.92;61.43
72288;SHT31;60221;45.696;16.076;2022-08-19T01:49:05;23.88;61.61
72288;SHT31;60221;45.696;16.076;2022-08-19T01:51:32;23.84;61.80
72288;SHT31;60221;45.696;16.076;2022-08-19T01:53:58;23.81;61.90
72288;SHT31;60221;45.696;16.076;2022-08-19T01:56:25;23.77;62.01
72288;SHT31;60221;45.696;16.076;2022-08-19T01:59:02;23.74;62.12
72288;SHT31;60221;45.696;16.076;2022-08-19T02:01:29;23.74;62.20
72288;SHT31;60221;45.696;16.076;2022-08-19T02:03:59;24.46;65.00
72288;SHT31;60221;45.696;16.076;2022-08-19T02:06:28;25.79;63.36
72288;SHT31;60221;45.696;16.076;2022-08-19T02:08:55;26.55;59.75
72288;SHT31;60221;45.696;16.076;2022-08-19T02:11:26;26.45;57.04
72288;SHT31;60221;45.696;16.076;2022-08-19T02:13:55;25.87;56.46
72288;SHT31;60221;45.696;16.076;2022-08-19T02:16:22;25.39;57.33
72288;SHT31;60221;45.696;16.076;2022-08-19T02:18:48;25.07;58.06
72288;SHT31;60221;45.696;16.076;2022-08-19T02:21:18;24.87;58.68
72288;SHT31;60221;45.696;16.076;2022-08-19T02:23:45;24.73;59.01
72288;SHT31;60221;45.696;16.076;2022-08-19T02:26:12;24.57;59.33
72288;SHT31;60221;45.696;16.076;2022-08-19T02:28:40;24.50;59.81
72288;SHT31;60221;45.696;16.076;2022-08-19T02:31:11;24.40;60.18
72288;SHT31;60221;45.696;16.076;2022-08-19T02:33:37;24.36;60.41
72288;SHT31;60221;45.696;16.076;2022-08-19T02:36:07;24.25;60.70
72288;SHT31;60221;45.696;16.076;2022-08-19T02:38:34;24.22;60.95
72288;SHT31;60221;45.696;16.076;2022-08-19T02:41:11;24.12;61.13
72288;SHT31;60221;45.696;16.076;2022-08-19T02:43:35;24.05;61.44
72288;SHT31;60221;45.696;16.076;2022-08-19T02:46:22;24.01;61.76
72288;SHT31;60221;45.696;16.076;2022-08-19T02:48:53;23.95;61.77
72288;SHT31;60221;45.696;16.076;2022-08-19T02:51:31;23.91;61.96
72288;SHT31;60221;45.696;16.076;2022-08-19T02:53:57;23.82;62.31
72288;SHT31;60221;45.696;16.076;2022-08-19T02:56:26;24.39;64.36
72288;SHT31;60221;45.696;16.076;2022-08-19T02:58:55;25.21;63.55
72288;SHT31;60221;45.696;16.076;2022-08-19T03:01:31;25.98;62.28
72288;SHT31;60221;45.696;16.076;2022-08-19T03:04:02;26.46;59.90
72288;SHT31;60221;45.696;16.076;2022-08-19T03:06:31;26.41;57.52
72288;SHT31;60221;45.696;16.076;2022-08-19T03:08:58;25.91;57.33
72288;SHT31;60221;45.696;16.076;2022-08-19T03:11:29;25.52;57.92
72288;SHT31;60221;45.696;16.076;2022-08-19T03:13:57;25.26;58.49
72288;SHT31;60221;45.696;16.076;2022-08-19T03:16:28;25.04;59.02
72288;SHT31;60221;45.696;16.076;2022-08-19T03:18:56;24.91;59.30
72288;SHT31;60221;45.696;16.076;2022-08-19T03:21:28;24.78;60.06
72288;SHT31;60221;45.696;16.076;2022-08-19T03:23:58;24.63;60.40
72288;SHT31;60221;45.696;16.076;2022-08-19T03:26:25;24.54;60.78
72288;SHT31;60221;45.696;16.076;2022-08-19T03:28:51;24.43;61.15
72288;SHT31;60221;45.696;16.076;2022-08-19T03:31:21;24.35;61.49
72288;SHT31;60221;45.696;16.076;2022-08-19T03:33:51;24.27;61.72
72288;SHT31;60221;45.696;16.076;2022-08-19T03:36:22;24.18;61.94
72288;SHT31;60221;45.696;16.076;2022-08-19T03:38:53;24.12;62.17
72288;SHT31;60221;45.696;16.076;2022-08-19T03:41:30;24.84;62.94
72288;SHT31;60221;45.696;16.076;2022-08-19T03:43:57;25.77;62.69
72288;SHT31;60221;45.696;16.076;2022-08-19T03:46:29;26.60;61.69
72288;SHT31;60221;45.696;16.076;2022-08-19T03:48:58;27.38;58.65
72288;SHT31;60221;45.696;16.076;2022-08-19T03:51:28;27.21;55.45
72288;SHT31;60221;45.696;16.076;2022-08-19T03:53:59;26.50;55.61
72288;SHT31;60221;45.696;16.076;2022-08-19T03:56:27;26.04;56.56
72288;SHT31;60221;45.696;16.076;2022-08-19T03:58:56;25.66;57.56
72288;SHT31;60221;45.696;16.076;2022-08-19T04:01:25;25.38;58.30
72288;SHT31;60221;45.696;16.076;2022-08-19T04:03:53;25.18;58.56
72288;SHT31;60221;45.696;16.076;2022-08-19T04:06:24;25.04;59.28
72288;SHT31;60221;45.696;16.076;2022-08-19T04:08:53;24.90;59.66
72288;SHT31;60221;45.696;16.076;2022-08-19T04:11:25;24.77;60.07
72288;SHT31;60221;45.696;16.076;2022-08-19T04:13:53;24.66;60.48
72288;SHT31;60221;45.696;16.076;2022-08-19T04:16:25;24.59;61.01
72288;SHT31;60221;45.696;16.076;2022-08-19T04:18:51;24.49;61.21
72288;SHT31;60221;45.696;16.076;2022-08-19T04:21:21;24.42;61.75
72288;SHT31;60221;45.696;16.076;2022-08-19T04:23:48;24.33;62.21
72288;SHT31;60221;45.696;16.076;2022-08-19T04:26:20;24.97;63.32
72288;SHT31;60221;45.696;16.076;2022-08-19T04:28:47;26.15;62.58
72288;SHT31;60221;45.696;16.076;2022-08-19T04:31:24;26.56;60.45
72288;SHT31;60221;45.696;16.076;2022-08-19T04:33:59;26.82;58.93
72288;SHT31;60221;45.696;16.076;2022-08-19T04:36:30;26.66;56.97
72288;SHT31;60221;45.696;16.076;2022-08-19T04:39:01;26.24;57.15
72288;SHT31;60221;45.696;16.076;2022-08-19T04:41:29;25.91;57.84
72288;SHT31;60221;45.696;16.076;2022-08-19T04:44:14;25.65;58.27
72288;SHT31;60221;45.696;16.076;2022-08-19T04:46:42;25.54;58.88
72288;SHT31;60221;45.696;16.076;2022-08-19T04:49:08;25.43;59.35
72288;SHT31;60221;45.696;16.076;2022-08-19T04:51:36;25.38;59.55
72288;SHT31;60221;45.696;16.076;2022-08-19T04:54:03;25.33;59.72
72288;SHT31;60221;45.696;16.076;2022-08-19T04:56:30;25.29;59.79
72288;SHT31;60221;45.696;16.076;2022-08-19T04:58:57;25.29;60.05
72288;SHT31;60221;45.696;16.076;2022-08-19T05:01:29;25.28;59.93
72288;SHT31;60221;45.696;16.076;2022-08-19T05:04:01;25.22;60.15
72288;SHT31;60221;45.696;16.076;2022-08-19T05:06:31;25.21;60.15
72288;SHT31;60221;45.696;16.076;2022-08-19T05:09:04;25.18;60.23
72288;SHT31;60221;45.696;16.076;2022-08-19T05:11:35;25.15;60.31
72288;SHT31;60221;45.696;16.076;2022-08-19T05:14:02;25.11;60.28
72288;SHT31;60221;45.696;16.076;2022-08-19T05:16:28;25.05;60.37
72288;SHT31;60221;45.696;16.076;2022-08-19T05:18:56;24.98;60.20
72288;SHT31;60221;45.696;16.076;2022-08-19T05:21:43;24.94;60.44
72288;SHT31;60221;45.696;16.076;2022-08-19T05:24:29;24.91;60.84
72288;SHT31;60221;45.696;16.076;2022-08-19T05:26:56;24.90;61.20
72288;SHT31;60221;45.696;16.076;2022-08-19T05:29:26;24.88;61.41
72288;SHT31;60221;45.696;16.076;2022-08-19T05:31:54;24.88;61.60
72288;SHT31;60221;45.696;16.076;2022-08-19T05:34:23;24.92;61.73
72288;SHT31;60221;45.696;16.076;2022-08-19T05:36:55;24.95;61.94
72288;SHT31;60221;45.696;16.076;2022-08-19T05:39:27;25.01;62.24
72288;SHT31;60221;45.696;16.076;2022-08-19T05:41:58;25.60;62.24
72288;SHT31;60221;45.696;16.076;2022-08-19T05:44:30;26.58;61.99
72288;SHT31;60221;45.696;16.076;2022-08-19T05:46:58;27.21;59.32
72288;SHT31;60221;45.696;16.076;2022-08-19T05:49:26;27.30;58.08
72288;SHT31;60221;45.696;16.076;2022-08-19T05:51:54;27.15;58.04
72288;SHT31;60221;45.696;16.076;2022-08-19T05:54:23;27.08;58.08
72288;SHT31;60221;45.696;16.076;2022-08-19T05:56:51;27.14;58.04
72288;SHT31;60221;45.696;16.076;2022-08-19T05:59:19;27.18;57.87
72288;SHT31;60221;45.696;16.076;2022-08-19T06:01:49;27.18;57.38
72288;SHT31;60221;45.696;16.076;2022-08-19T06:04:18;27.20;57.33
72288;SHT31;60221;45.696;16.076;2022-08-19T06:06:48;27.11;57.14
72288;SHT31;60221;45.696;16.076;2022-08-19T06:09:16;26.98;57.11
72288;SHT31;60221;45.696;16.076;2022-08-19T06:11:49;26.90;56.73
72288;SHT31;60221;45.696;16.076;2022-08-19T06:14:27;26.80;56.97
72288;SHT31;60221;45.696;16.076;2022-08-19T06:16:50;26.69;57.03
72288;SHT31;60221;45.696;16.076;2022-08-19T06:19:22;26.63;57.08
72288;SHT31;60221;45.696;16.076;2022-08-19T06:21:52;26.55;56.87
72288;SHT31;60221;45.696;16.076;2022-08-19T06:24:23;26.50;57.04
72288;SHT31;60221;45.696;16.076;2022-08-19T06:26:52;26.48;56.98
72288;SHT31;60221;45.696;16.076;2022-08-19T06:29:23;26.43;56.94
72288;SHT31;60221;45.696;16.076;2022-08-19T06:31:53;26.39;56.74
72288;SHT31;60221;45.696;16.076;2022-08-19T06:34:20;26.36;56.71
72288;SHT31;60221;45.696;16.076;2022-08-19T06:36:50;26.35;56.55
72288;SHT31;60221;45.696;16.076;2022-08-19T06:39:25;26.43;56.48
72288;SHT31;60221;45.696;16.076;2022-08-19T06:41:54;26.50;56.26
72288;SHT31;60221;45.696;16.076;2022-08-19T06:44:23;26.58;55.99
72288;SHT31;60221;45.696;16.076;2022-08-19T06:46:53;26.60;55.48
72288;SHT31;60221;45.696;16.076;2022-08-19T06:49:19;26.64;55.37
72288;SHT31;60221;45.696;16.076;2022-08-19T06:51:48;26.69;54.81
72288;SHT31;60221;45.696;16.076;2022-08-19T06:54:16;26.69;53.76
72288;SHT31;60221;45.696;16.076;2022-08-19T06:56:43;26.70;53.69
72288;SHT31;60221;45.696;16.076;2022-08-19T06:59:15;26.75;53.40
72288;SHT31;60221;45.696;16.076;2022-08-19T07:01:51;26.75;52.85
72288;SHT31;60221;45.696;16.076;2022-08-19T07:04:22;26.66;52.45
72288;SHT31;60221;45.696;16.076;2022-08-19T07:06:46;26.62;52.42
72288;SHT31;60221;45.696;16.076;2022-08-19T07:09:17;26.55;52.63
72288;SHT31;60221;45.696;16.076;2022-08-19T07:11:50;26.46;53.15
72288;SHT31;60221;45.696;16.076;2022-08-19T07:14:22;26.38;53.31
72288;SHT31;60221;45.696;16.076;2022-08-19T07:16:53;26.32;53.88
72288;SHT31;60221;45.696;16.076;2022-08-19T07:19:22;26.25;53.78
72288;SHT31;60221;45.696;16.076;2022-08-19T07:21:51;26.24;53.60
72288;SHT31;60221;45.696;16.076;2022-08-19T07:24:23;26.15;53.76
72288;SHT31;60221;45.696;16.076;2022-08-19T07:26:53;26.05;54.11
72288;SHT31;60221;45.696;16.076;2022-08-19T07:29:22;25.98;54.77
72288;SHT31;60221;45.696;16.076;2022-08-19T07:31:51;26.01;55.71
72288;SHT31;60221;45.696;16.076;2022-08-19T07:34:18;26.12;56.04
72288;SHT31;60221;45.696;16.076;2022-08-19T07:36:45;26.25;56.91
72288;SHT31;60221;45.696;16.076;2022-08-19T07:39:17;26.36;57.08
72288;SHT31;60221;45.696;16.076;2022-08-19T07:41:43;26.45;57.20
72288;SHT31;60221;45.696;16.076;2022-08-19T07:44:10;26.53;57.44
72288;SHT31;60221;45.696;16.076;2022-08-19T07:46:43;26.63;57.22
72288;SHT31;60221;45.696;16.076;2022-08-19T07:49:11;26.68;56.63
72288;SHT31;60221;45.696;16.076;2022-08-19T07:51:40;26.77;55.82
72288;SHT31;60221;45.696;16.076;2022-08-19T07:54:06;26.79;55.84
72288;SHT31;60221;45.696;16.076;2022-08-19T07:56:32;26.85;55.99
72288;SHT31;60221;45.696;16.076;2022-08-19T07:58:58;26.90;55.74
72288;SHT31;60221;45.696;16.076;2022-08-19T08:01:27;26.94;55.98
72288;SHT31;60221;45.696;16.076;2022-08-19T08:03:57;26.93;56.18
72288;SHT31;60221;45.696;16.076;2022-08-19T08:06:42;26.89;56.02
72288;SHT31;60221;45.696;16.076;2022-08-19T08:09:34;26.89;56.11
72288;SHT31;60221;45.696;16.076;2022-08-19T08:12:09;26.91;55.89
72288;SHT31;60221;45.696;16.076;2022-08-19T08:14:49;27.06;55.99
72288;SHT31;60221;45.696;16.076;2022-08-19T08:17:19;27.27;55.47
72288;SHT31;60221;45.696;16.076;2022-08-19T08:19:46;27.45;54.80
72288;SHT31;60221;45.696;16.076;2022-08-19T08:22:20;27.66;54.16
72288;SHT31;60221;45.696;16.076;2022-08-19T08:25:09;27.88;53.42
72288;SHT31;60221;45.696;16.076;2022-08-19T08:27:38;28.06;53.32
72288;SHT31;60221;45.696;16.076;2022-08-19T08:30:09;28.18;52.39
72288;SHT31;60221;45.696;16.076;2022-08-19T08:32:38;28.30;52.02
72288;SHT31;60221;45.696;16.076;2022-08-19T08:35:10;28.36;51.35
72288;SHT31;60221;45.696;16.076;2022-08-19T08:37:37;28.48;51.15
72288;SHT31;60221;45.696;16.076;2022-08-19T08:40:45;28.54;50.98
72288;SHT31;60221;45.696;16.076;2022-08-19T08:46:08;28.72;50.71
72288;SHT31;60221;45.696;16.076;2022-08-19T08:48:52;28.89;50.60
72288;SHT31;60221;45.696;16.076;2022-08-19T08:51:27;28.99;50.50
72288;SHT31;60221;45.696;16.076;2022-08-19T08:53:54;29.05;49.97
72288;SHT31;60221;45.696;16.076;2022-08-19T08:56:22;29.09;49.38
72288;SHT31;60221;45.696;16.076;2022-08-19T08:59:06;29.10;49.62
72288;SHT31;60221;45.696;16.076;2022-08-19T09:01:35;29.14;49.31
72288;SHT31;60221;45.696;16.076;2022-08-19T09:04:07;29.19;49.44
72288;SHT31;60221;45.696;16.076;2022-08-19T09:06:55;29.17;49.59
72288;SHT31;60221;45.696;16.076;2022-08-19T09:09:30;29.21;49.69
72288;SHT31;60221;45.696;16.076;2022-08-19T09:15:02;29.33;49.51
72288;SHT31;60221;45.696;16.076;2022-08-19T09:17:31;29.40;49.15
72288;SHT31;60221;45.696;16.076;2022-08-19T09:20:05;29.41;48.72
72288;SHT31;60221;45.696;16.076;2022-08-19T09:22:33;29.44;48.32
72288;SHT31;60221;45.696;16.076;2022-08-19T09:25:01;29.43;48.69
72288;SHT31;60221;45.696;16.076;2022-08-19T09:27:29;29.38;48.50
72288;SHT31;60221;45.696;16.076;2022-08-19T09:29:55;29.44;48.92
72288;SHT31;60221;45.696;16.076;2022-08-19T09:32:23;29.58;49.05
72288;SHT31;60221;45.696;16.076;2022-08-19T09:34:50;29.68;49.04
72288;SHT31;60221;45.696;16.076;2022-08-19T09:37:18;29.69;48.65
72288;SHT31;60221;45.696;16.076;2022-08-19T09:39:44;29.60;48.26
72288;SHT31;60221;45.696;16.076;2022-08-19T09:42:10;29.48;48.45
72288;SHT31;60221;45.696;16.076;2022-08-19T09:44:40;29.31;48.82
72288;SHT31;60221;45.696;16.076;2022-08-19T09:47:13;29.10;49.21
72288;SHT31;60221;45.696;16.076;2022-08-19T09:49:40;28.86;49.74
72288;SHT31;60221;45.696;16.076;2022-08-19T09:52:09;28.64;50.21
72288;SHT31;60221;45.696;16.076;2022-08-19T09:54:38;28.43;50.84
72288;SHT31;60221;45.696;16.076;2022-08-19T09:57:04;28.26;51.40
72288;SHT31;60221;45.696;16.076;2022-08-19T09:59:31;28.03;52.08
72288;SHT31;60221;45.696;16.076;2022-08-19T10:01:57;27.90;53.48
72288;SHT31;60221;45.696;16.076;2022-08-19T10:04:24;27.63;55.32
72288;SHT31;60221;45.696;16.076;2022-08-19T10:06:55;27.30;57.11
72288;SHT31;60221;45.696;16.076;2022-08-19T10:09:21;27.03;58.00
72288;SHT31;60221;45.696;16.076;2022-08-19T10:11:48;26.75;59.02
72288;SHT31;60221;45.696;16.076;2022-08-19T10:14:15;26.50;59.78
72288;SHT31;60221;45.696;16.076;2022-08-19T10:16:42;26.28;60.54
72288;SHT31;60221;45.696;16.076;2022-08-19T10:19:09;26.14;60.93
72288;SHT31;60221;45.696;16.076;2022-08-19T10:21:36;26.05;61.52
72288;SHT31;60221;45.696;16.076;2022-08-19T10:24:05;26.04;61.77
72288;SHT31;60221;45.696;16.076;2022-08-19T10:26:36;26.08;61.83
72288;SHT31;60221;45.696;16.076;2022-08-19T10:29:04;26.20;61.49
72288;SHT31;60221;45.696;16.076;2022-08-19T10:31:33;26.60;63.07
72288;SHT31;60221;45.696;16.076;2022-08-19T10:34:01;27.83;58.52
72288;SHT31;60221;45.696;16.076;2022-08-19T10:36:32;28.23;56.81
72288;SHT31;60221;45.696;16.076;2022-08-19T10:39:03;28.16;56.95
72288;SHT31;60221;45.696;16.076;2022-08-19T10:41:32;28.20;57.10
72288;SHT31;60221;45.696;16.076;2022-08-19T10:44:04;28.33;56.79
72288;SHT31;60221;45.696;16.076;2022-08-19T10:46:33;28.50;56.37
72288;SHT31;60221;45.696;16.076;2022-08-19T10:49:03;28.78;56.31
72288;SHT31;60221;45.696;16.076;2022-08-19T10:51:29;29.06;54.88
72288;SHT31;60221;45.696;16.076;2022-08-19T10:54:15;29.21;54.48
72288;SHT31;60221;45.696;16.076;2022-08-19T10:56:41;29.40;53.69
72288;SHT31;60221;45.696;16.076;2022-08-19T10:59:27;29.67;53.51
72288;SHT31;60221;45.696;16.076;2022-08-19T11:01:59;30.09;52.09
72288;SHT31;60221;45.696;16.076;2022-08-19T11:04:22;30.37;50.68
72288;SHT31;60221;45.696;16.076;2022-08-19T11:06:49;30.59;49.34
72288;SHT31;60221;45.696;16.076;2022-08-19T11:09:23;30.81;48.59
72288;SHT31;60221;45.696;16.076;2022-08-19T11:11:46;31.03;47.66
72288;SHT31;60221;45.696;16.076;2022-08-19T11:14:16;31.21;46.97
72288;SHT31;60221;45.696;16.076;2022-08-19T11:16:44;31.40;45.87
72288;SHT31;60221;45.696;16.076;2022-08-19T11:19:12;31.56;45.05
72288;SHT31;60221;45.696;16.076;2022-08-19T11:21:43;31.64;44.47
72288;SHT31;60221;45.696;16.076;2022-08-19T11:24:15;31.76;43.96
72288;SHT31;60221;45.696;16.076;2022-08-19T11:26:43;31.91;43.79
72288;SHT31;60221;45.696;16.076;2022-08-19T11:29:12;32.00;43.33
72288;SHT31;60221;45.696;16.076;2022-08-19T11:31:43;32.12;42.72
72288;SHT31;60221;45.696;16.076;2022-08-19T11:34:16;32.25;42.78
72288;SHT31;60221;45.696;16.076;2022-08-19T11:36:44;32.39;42.44
72288;SHT31;60221;45.696;16.076;2022-08-19T11:39:15;32.40;41.91
72288;SHT31;60221;45.696;16.076;2022-08-19T11:41:42;32.34;41.35
72288;SHT31;60221;45.696;16.076;2022-08-19T11:44:08;32.27;41.58
72288;SHT31;60221;45.696;16.076;2022-08-19T11:46:37;32.17;42.11
72288;SHT31;60221;45.696;16.076;2022-08-19T11:49:06;32.12;41.79
72288;SHT31;60221;45.696;16.076;2022-08-19T11:51:33;32.11;41.86
72288;SHT31;60221;45.696;16.076;2022-08-19T11:54:00;32.07;41.96
72288;SHT31;60221;45.696;16.076;2022-08-19T11:56:28;32.08;41.87
72288;SHT31;60221;45.696;16.076;2022-08-19T11:58:55;32.04;41.88
72288;SHT31;60221;45.696;16.076;2022-08-19T12:01:25;31.97;41.76
72288;SHT31;60221;45.696;16.076;2022-08-19T12:03:54;31.90;41.78
72288;SHT31;60221;45.696;16.076;2022-08-19T12:06:24;31.88;41.82
72288;SHT31;60221;45.696;16.076;2022-08-19T12:08:53;31.84;42.47
72288;SHT31;60221;45.696;16.076;2022-08-19T12:11:19;31.85;42.68
72288;SHT31;60221;45.696;16.076;2022-08-19T12:13:46;31.73;42.92
72288;SHT31;60221;45.696;16.076;2022-08-19T12:16:18;31.53;43.11
72288;SHT31;60221;45.696;16.076;2022-08-19T12:18:46;31.33;42.98
72288;SHT31;60221;45.696;16.076;2022-08-19T12:21:15;31.21;43.54
72288;SHT31;60221;45.696;16.076;2022-08-19T12:23:43;31.09;43.91
72288;SHT31;60221;45.696;16.076;2022-08-19T12:26:12;31.07;44.16
72288;SHT31;60221;45.696;16.076;2022-08-19T12:28:38;31.02;44.51
72288;SHT31;60221;45.696;16.076;2022-08-19T12:31:05;31.03;44.77
72288;SHT31;60221;45.696;16.076;2022-08-19T12:33:31;31.12;44.86
72288;SHT31;60221;45.696;16.076;2022-08-19T12:36:04;31.19;44.65
72288;SHT31;60221;45.696;16.076;2022-08-19T12:38:32;31.22;44.73
72288;SHT31;60221;45.696;16.076;2022-08-19T12:41:00;31.26;44.59
72288;SHT31;60221;45.696;16.076;2022-08-19T12:43:28;31.25;44.53
72288;SHT31;60221;45.696;16.076;2022-08-19T12:45:56;31.36;44.39
72288;SHT31;60221;45.696;16.076;2022-08-19T12:48:23;31.47;44.03
72288;SHT31;60221;45.696;16.076;2022-08-19T12:50:49;31.63;43.74
72288;SHT31;60221;45.696;16.076;2022-08-19T12:53:16;31.79;43.01
72288;SHT31;60221;45.696;16.076;2022-08-19T12:55:42;31.88;42.79
72288;SHT31;60221;45.696;16.076;2022-08-19T12:58:09;32.06;41.57
72288;SHT31;60221;45.696;16.076;2022-08-19T13:00:36;32.10;41.64
72288;SHT31;60221;45.696;16.076;2022-08-19T13:03:02;32.19;40.08
72288;SHT31;60221;45.696;16.076;2022-08-19T13:05:32;32.28;39.83
72288;SHT31;60221;45.696;16.076;2022-08-19T13:08:02;32.40;38.97
72288;SHT31;60221;45.696;16.076;2022-08-19T13:10:33;32.58;38.70
72288;SHT31;60221;45.696;16.076;2022-08-19T13:13:06;32.72;37.92
72288;SHT31;60221;45.696;16.076;2022-08-19T13:15:36;32.76;37.55
72288;SHT31;60221;45.696;16.076;2022-08-19T13:18:03;32.84;36.98
72288;SHT31;60221;45.696;16.076;2022-08-19T13:20:30;32.89;37.10
72288;SHT31;60221;45.696;16.076;2022-08-19T13:22:56;32.91;37.27
72288;SHT31;60221;45.696;16.076;2022-08-19T13:25:23;33.01;37.01
72288;SHT31;60221;45.696;16.076;2022-08-19T13:27:50;32.96;36.96
72288;SHT31;60221;45.696;16.076;2022-08-19T13:30:19;32.89;37.60
72288;SHT31;60221;45.696;16.076;2022-08-19T13:33:07;32.80;38.05
72288;SHT31;60221;45.696;16.076;2022-08-19T13:35:38;32.70;38.14
72288;SHT31;60221;45.696;16.076;2022-08-19T13:38:05;32.67;38.40
72288;SHT31;60221;45.696;16.076;2022-08-19T13:40:33;32.63;38.36
72288;SHT31;60221;45.696;16.076;2022-08-19T13:43:01;32.54;38.50
72288;SHT31;60221;45.696;16.076;2022-08-19T13:45:31;32.36;38.64
72288;SHT31;60221;45.696;16.076;2022-08-19T13:48:04;32.19;38.96
72288;SHT31;60221;45.696;16.076;2022-08-19T13:50:37;32.03;39.48
72288;SHT31;60221;45.696;16.076;2022-08-19T13:53:02;31.85;39.91
72288;SHT31;60221;45.696;16.076;2022-08-19T13:55:30;31.76;40.03
72288;SHT31;60221;45.696;16.076;2022-08-19T13:57:59;31.60;40.42
72288;SHT31;60221;45.696;16.076;2022-08-19T14:00:32;31.53;40.76
72288;SHT31;60221;45.696;16.076;2022-08-19T14:02:58;31.52;40.99
72288;SHT31;60221;45.696;16.076;2022-08-19T14:05:27;31.52;41.22
72288;SHT31;60221;45.696;16.076;2022-08-19T14:07:54;31.40;41.49
72288;SHT31;60221;45.696;16.076;2022-08-19T14:10:22;31.33;41.92
72288;SHT31;60221;45.696;16.076;2022-08-19T14:12:52;31.26;42.06
72288;SHT31;60221;45.696;16.076;2022-08-19T14:15:18;31.24;42.13
72288;SHT31;60221;45.696;16.076;2022-08-19T14:17:45;31.15;42.38
72288;SHT31;60221;45.696;16.076;2022-08-19T14:20:16;31.11;42.82
72288;SHT31;60221;45.696;16.076;2022-08-19T14:22:45;31.08;42.95
72288;SHT31;60221;45.696;16.076;2022-08-19T14:25:17;31.09;42.97
72288;SHT31;60221;45.696;16.076;2022-08-19T14:27:43;31.12;42.91
72288;SHT31;60221;45.696;16.076;2022-08-19T14:30:16;31.09;42.70
72288;SHT31;60221;45.696;16.076;2022-08-19T14:32:42;31.07;42.53
72288;SHT31;60221;45.696;16.076;2022-08-19T14:35:14;30.98;42.62
72288;SHT31;60221;45.696;16.076;2022-08-19T14:37:43;30.97;42.67
72288;SHT31;60221;45.696;16.076;2022-08-19T14:40:14;30.94;42.90
72288;SHT31;60221;45.696;16.076;2022-08-19T14:42:40;30.94;43.13
72288;SHT31;60221;45.696;16.076;2022-08-19T14:45:09;30.94;43.32
72288;SHT31;60221;45.696;16.076;2022-08-19T14:47:36;30.95;43.37
72288;SHT31;60221;45.696;16.076;2022-08-19T14:50:07;30.98;43.41
72288;SHT31;60221;45.696;16.076;2022-08-19T14:52:34;31.01;43.43
72288;SHT31;60221;45.696;16.076;2022-08-19T14:55:00;31.05;43.51
72288;SHT31;60221;45.696;16.076;2022-08-19T14:57:26;31.11;43.45
72288;SHT31;60221;45.696;16.076;2022-08-19T14:59:53;31.11;43.61
72288;SHT31;60221;45.696;16.076;2022-08-19T15:02:19;31.15;43.04
72288;SHT31;60221;45.696;16.076;2022-08-19T15:04:46;31.14;42.96
72288;SHT31;60221;45.696;16.076;2022-08-19T15:07:12;31.15;43.09
72288;SHT31;60221;45.696;16.076;2022-08-19T15:09:38;31.18;43.30
72288;SHT31;60221;45.696;16.076;2022-08-19T15:12:05;31.16;43.47
72288;SHT31;60221;45.696;16.076;2022-08-19T15:14:31;31.14;43.63
72288;SHT31;60221;45.696;16.076;2022-08-19T15:17:02;31.12;43.74
72288;SHT31;60221;45.696;16.076;2022-08-19T15:19:31;31.07;43.70
72288;SHT31;60221;45.696;16.076;2022-08-19T15:21:59;30.99;43.92
72288;SHT31;60221;45.696;16.076;2022-08-19T15:24:25;30.95;44.04
72288;SHT31;60221;45.696;16.076;2022-08-19T15:26:53;30.89;44.25
72288;SHT31;60221;45.696;16.076;2022-08-19T15:29:22;30.84;44.23
72288;SHT31;60221;45.696;16.076;2022-08-19T15:31:51;30.78;44.26
72288;SHT31;60221;45.696;16.076;2022-08-19T15:34:19;30.69;44.38
72288;SHT31;60221;45.696;16.076;2022-08-19T15:36:46;30.63;44.59